sensor_id;sensor_type;location;lat;lon;timestamp;pressure;altitude;pressure_sealevel;temperature;humidity
7832;BME280;3961;42.058;25.586;2022-11-10T00:01:51;63026.81;;;7.20;100.00
7832;BME280;3961;42.058;25.586;2022-11-10T00:04:17;63027.63;;;7.23;100.00
7832;BME280;3961;42.058;25.586;2022-11-10T00:06:45;63011.78;;;7.11;100.00
7832;BME280;3961;42.058;25.586;2022-11-10T00:09:11;62977.72;;;6.86;100.00
7832;BME280;3961;42.058;25.586;2022-11-10T00:11:36;62997.13;;;6.96;100.00
7832;BME280;3961;42.058;25.586;2022-11-10T00:14:02;62976.91;;;6.83;100.00
7832;BME280;3961;42.058;25.586;2022-11-10T00:16:46;62968.63;;;6.73;100.00
7832;BME280;3961;42.058;25.586;2022-11-10T00:19:27;62944.72;;;6.54;100.00
7832;BME280;3961;42.058;25.586;2022-11-10T00:21:53;62951.94;;;6.58;100.00
7832;BME280;3961;42.058;25.586;2022-11-10T00:24:18;62948.50;;;6.55;100.00
7832;BME280;3961;42.058;25.586;2022-11-10T00:26:44;62965.44;;;6.72;100.00
7832;BME280;3961;42.058;25.586;2022-11-10T00:29:09;62958.53;;;6.66;100.00
7832;BME280;3961;42.058;25.586;2022-11-10T00:31:39;62931.94;;;6.36;100.00
7832;BME280;3961;42.058;25.586;2022-11-10T00:34:05;62924.38;;;6.34;100.00
7832;BME280;3961;42.058;25.586;2022-11-10T00:36:33;62913.34;;;6.29;100.00
7832;BME280;3961;42.058;25.586;2022-11-10T00:38:59;62933.00;;;6.42;100.00
7832;BME280;3961;42.058;25.586;2022-11-10T00:41:24;62931.84;;;6.40;100.00
7832;BME280;3961;42.058;25.586;2022-11-10T00:43:50;62932.41;;;6.41;100.00
7832;BME280;3961;42.058;25.586;2022-11-10T00:46:16;62948.84;;;6.53;100.00
7832;BME280;3961;42.058;25.586;2022-11-10T00:48:41;62960.59;;;6.66;100.00
7832;BME280;3961;42.058;25.586;2022-11-10T00:51:09;62963.78;;;6.66;100.00
7832;BME280;3961;42.058;25.586;2022-11-10T00:53:37;62944.25;;;6.49;100.00
7832;BME280;3961;42.058;25.586;2022-11-10T00:56:03;62941.63;;;6.49;100.00
7832;BME280;3961;42.058;25.586;2022-11-10T00:58:29;62959.44;;;6.65;100.00
7832;BME280;3961;42.058;25.586;2022-11-10T01:01:00;62942.75;;;6.50;100.00
7832;BME280;3961;42.058;25.586;2022-11-10T01:03:26;62934.97;;;6.46;100.00
7832;BME280;3961;42.058;25.586;2022-11-10T01:05:52;62922.06;;;6.32;100.00
7832;BME280;3961;42.058;25.586;2022-11-10T01:08:18;62906.22;;;6.20;100.00
7832;BME280;3961;42.058;25.586;2022-11-10T01:10:43;62912.78;;;6.28;100.00
7832;BME280;3961;42.058;25.586;2022-11-10T01:13:09;62902.22;;;6.17;100.00
7832;BME280;3961;42.058;25.586;2022-11-10T01:15:38;62900.25;;;6.13;100.00
7832;BME280;3961;42.058;25.586;2022-11-10T01:18:04;62896.78;;;6.10;100.00
7832;BME280;3961;42.058;25.586;2022-11-10T01:20:32;62885.88;;;6.00;100.00
7832;BME280;3961;42.058;25.586;2022-11-10T01:22:57;62886.13;;;6.02;100.00
7832;BME280;3961;42.058;25.586;2022-11-10T01:25:23;62889.66;;;6.01;100.00
7832;BME280;3961;42.058;25.586;2022-11-10T01:27:49;62877.91;;;5.88;100.00
7832;BME280;3961;42.058;25.586;2022-11-10T01:30:15;62883.91;;;5.96;100.00
7832;BME280;3961;42.058;25.586;2022-11-10T01:32:41;62883.91;;;5.96;100.00
7832;BME280;3961;42.058;25.586;2022-11-10T01:35:07;62902.22;;;6.17;100.00
7832;BME280;3961;42.058;25.586;2022-11-10T01:37:32;62870.91;;;5.87;100.00
7832;BME280;3961;42.058;25.586;2022-11-10T01:39:58;62906.78;;;6.21;100.00
7832;BME280;3961;42.058;25.586;2022-11-10T01:42:41;62872.06;;;5.88;100.00
7832;BME280;3961;42.058;25.586;2022-11-10T01:48:02;62839.31;;;5.59;100.00
7832;BME280;3961;42.058;25.586;2022-11-10T01:50:34;62834.72;;;5.55;100.00
7832;BME280;3961;42.058;25.586;2022-11-10T01:53:02;62834.41;;;5.57;100.00
7832;BME280;3961;42.058;25.586;2022-11-10T01:55:30;62855.75;;;5.71;100.00
7832;BME280;3961;42.058;25.586;2022-11-10T01:57:56;62863.22;;;5.78;100.00
7832;BME280;3961;42.058;25.586;2022-11-10T02:00:22;62881.03;;;5.93;100.00
7832;BME280;3961;42.058;25.586;2022-11-10T02:03:08;62851.63;;;5.72;100.00
7832;BME280;3961;42.058;25.586;2022-11-10T02:05:35;62850.25;;;5.68;100.00
7832;BME280;3961;42.058;25.586;2022-11-10T02:08:01;62847.38;;;5.66;100.00
7832;BME280;3961;42.058;25.586;2022-11-10T02:10:26;62867.47;;;5.84;100.00
7832;BME280;3961;42.058;25.586;2022-11-10T02:12:52;62847.38;;;5.66;100.00
7832;BME280;3961;42.058;25.586;2022-11-10T02:15:18;62849.91;;;5.70;100.00
7832;BME280;3961;42.058;25.586;2022-11-10T02:17:47;62823.94;;;5.40;100.00
7832;BME280;3961;42.058;25.586;2022-11-10T02:20:16;62832.09;;;5.55;100.00
7832;BME280;3961;42.058;25.586;2022-11-10T02:22:42;62839.09;;;5.56;100.00
7832;BME280;3961;42.058;25.586;2022-11-10T02:25:08;62835.31;;;5.55;100.00
7832;BME280;3961;42.058;25.586;2022-11-10T02:27:34;62867.81;;;5.82;100.00
7832;BME280;3961;42.058;25.586;2022-11-10T02:30:00;62871.25;;;5.85;100.00
7832;BME280;3961;42.058;25.586;2022-11-10T02:32:25;62866.56;;;5.85;100.00
7832;BME280;3961;42.058;25.586;2022-11-10T02:34:52;62875.25;;;5.88;100.00
7832;BME280;3961;42.058;25.586;2022-11-10T02:37:18;62868.63;;;5.85;100.00
7832;BME280;3961;42.058;25.586;2022-11-10T02:39:43;62866.91;;;5.83;100.00
7832;BME280;3961;42.058;25.586;2022-11-10T02:42:09;62846.13;;;5.69;100.00
7832;BME280;3961;42.058;25.586;2022-11-10T02:44:40;62858.63;;;5.73;100.00
7832;BME280;3961;42.058;25.586;2022-11-10T02:47:06;62844.75;;;5.66;100.00
7832;BME280;3961;42.058;25.586;2022-11-10T02:49:32;62842.78;;;5.62;100.00
7832;BME280;3961;42.058;25.586;2022-11-10T02:51:58;62833.00;;;5.53;100.00
7832;BME280;3961;42.058;25.586;2022-11-10T02:54:23;62858.88;;;5.76;100.00
7832;BME280;3961;42.058;25.586;2022-11-10T02:56:49;62821.53;;;5.43;100.00
7832;BME280;3961;42.058;25.586;2022-11-10T02:59:14;62834.97;;;5.57;100.00
7832;BME280;3961;42.058;25.586;2022-11-10T03:01:40;62847.63;;;5.68;100.00
7832;BME280;3961;42.058;25.586;2022-11-10T03:04:06;62813.25;;;5.33;100.00
7832;BME280;3961;42.058;25.586;2022-11-10T03:06:32;62825.56;;;5.47;100.00
7832;BME280;3961;42.058;25.586;2022-11-10T03:08:58;62799.38;;;5.26;100.00
7832;BME280;3961;42.058;25.586;2022-11-10T03:11:24;62807.75;;;5.31;100.00
7832;BME280;3961;42.058;25.586;2022-11-10T03:13:50;62839.09;;;5.56;100.00
7832;BME280;3961;42.058;25.586;2022-11-10T03:16:16;62843.91;;;5.63;100.00
7832;BME280;3961;42.058;25.586;2022-11-10T03:18:42;62846.78;;;5.65;100.00
7832;BME280;3961;42.058;25.586;2022-11-10T03:21:07;62854.25;;;5.72;100.00
7832;BME280;3961;42.058;25.586;2022-11-10T03:23:33;62848.28;;;5.64;100.00
7832;BME280;3961;42.058;25.586;2022-11-10T03:26:02;62869.44;;;5.88;100.00
7832;BME280;3961;42.058;25.586;2022-11-10T03:28:28;62851.63;;;5.72;100.00
7832;BME280;3961;42.058;25.586;2022-11-10T03:30:54;62876.69;;;5.92;100.00
7832;BME280;3961;42.058;25.586;2022-11-10T03:33:19;62860.59;;;5.78;100.00
7832;BME280;3961;42.058;25.586;2022-11-10T03:35:45;62873.47;;;5.91;100.00
7832;BME280;3961;42.058;25.586;2022-11-10T03:38:11;62880.69;;;5.95;100.00
7832;BME280;3961;42.058;25.586;2022-11-10T03:40:36;62881.59;;;5.94;100.00
7832;BME280;3961;42.058;25.586;2022-11-10T03:43:02;62886.44;;;6.00;100.00
7832;BME280;3961;42.058;25.586;2022-11-10T03:45:27;62902.31;;;6.12;100.00
7832;BME280;3961;42.058;25.586;2022-11-10T03:47:53;62883.66;;;5.93;100.00
7832;BME280;3961;42.058;25.586;2022-11-10T03:50:18;62931.03;;;6.37;100.00
7832;BME280;3961;42.058;25.586;2022-11-10T03:52:44;62916.56;;;6.29;100.00
7832;BME280;3961;42.058;25.586;2022-11-10T03:55:13;62919.78;;;6.30;100.00
7832;BME280;3961;42.058;25.586;2022-11-10T03:57:39;62907.13;;;6.19;100.00
7832;BME280;3961;42.058;25.586;2022-11-10T04:00:05;62920.09;;;6.28;100.00
7832;BME280;3961;42.058;25.586;2022-11-10T04:02:32;62890.72;;;6.06;100.00
7832;BME280;3961;42.058;25.586;2022-11-10T04:04:57;62903.69;;;6.16;100.00
7832;BME280;3961;42.058;25.586;2022-11-10T04:07:41;62887.25;;;6.03;100.00
7832;BME280;3961;42.058;25.586;2022-11-10T04:10:25;62878.41;;;5.93;100.00
7832;BME280;3961;42.058;25.586;2022-11-10T04:12:50;62868.28;;;5.87;100.00
7832;BME280;3961;42.058;25.586;2022-11-10T04:15:34;62867.38;;;5.88;100.00
7832;BME280;3961;42.058;25.586;2022-11-10T04:18:13;62863.13;;;5.82;100.00
7832;BME280;3961;42.058;25.586;2022-11-10T04:20:56;62866.91;;;5.83;100.00
7832;BME280;3961;42.058;25.586;2022-11-10T04:23:22;62857.97;;;5.78;100.00
7832;BME280;3961;42.058;25.586;2022-11-10T04:28:47;62871.16;;;5.89;100.00
7832;BME280;3961;42.058;25.586;2022-11-10T04:31:15;62887.25;;;6.03;100.00
7832;BME280;3961;42.058;25.586;2022-11-10T04:33:42;62844.97;;;5.68;100.00
7832;BME280;3961;42.058;25.586;2022-11-10T04:36:09;62893.59;;;6.09;100.00
7832;BME280;3961;42.058;25.586;2022-11-10T04:38:35;62894.50;;;6.07;100.00
7832;BME280;3961;42.058;25.586;2022-11-10T04:41:00;62879.22;;;5.96;100.00
7832;BME280;3961;42.058;25.586;2022-11-10T04:43:26;62899.09;;;6.12;100.00
7832;BME280;3961;42.058;25.586;2022-11-10T04:45:52;62889.91;;;6.03;100.00
7832;BME280;3961;42.058;25.586;2022-11-10T04:48:18;62883.00;;;5.97;100.00
7832;BME280;3961;42.058;25.586;2022-11-10T04:50:44;62897.69;;;6.08;100.00
7832;BME280;3961;42.058;25.586;2022-11-10T04:53:09;62883.00;;;5.97;100.00
7832;BME280;3961;42.058;25.586;2022-11-10T04:55:38;62895.88;;;6.11;100.00
7832;BME280;3961;42.058;25.586;2022-11-10T04:58:05;62896.78;;;6.10;100.00
7832;BME280;3961;42.058;25.586;2022-11-10T05:00:31;62898.28;;;6.09;100.00
7832;BME280;3961;42.058;25.586;2022-11-10T05:03:00;62903.13;;;6.15;100.00
7832;BME280;3961;42.058;25.586;2022-11-10T05:05:26;62917.72;;;6.30;100.00
7832;BME280;3961;42.058;25.586;2022-11-10T05:07:52;62897.84;;;6.15;100.00
7832;BME280;3961;42.058;25.586;2022-11-10T05:10:18;62916.22;;;6.31;100.00
7832;BME280;3961;42.058;25.586;2022-11-10T05:12:43;62936.78;;;6.43;100.00
7832;BME280;3961;42.058;25.586;2022-11-10T05:15:09;62928.06;;;6.39;100.00
7832;BME280;3961;42.058;25.586;2022-11-10T05:17:35;62939.09;;;6.45;100.00
7832;BME280;3961;42.058;25.586;2022-11-10T05:20:00;62951.72;;;6.56;100.00
7832;BME280;3961;42.058;25.586;2022-11-10T05:22:26;62965.84;;;6.66;100.00
7832;BME280;3961;42.058;25.586;2022-11-10T05:24:52;62960.81;;;6.68;100.00
7832;BME280;3961;42.058;25.586;2022-11-10T05:27:17;62960.00;;;6.65;100.00
7832;BME280;3961;42.058;25.586;2022-11-10T05:29:42;62962.31;;;6.67;100.00
7832;BME280;3961;42.058;25.586;2022-11-10T05:32:08;62965.44;;;6.72;100.00
7832;BME280;3961;42.058;25.586;2022-11-10T05:34:33;62962.56;;;6.70;100.00
7832;BME280;3961;42.058;25.586;2022-11-10T05:36:59;62978.63;;;6.84;100.00
7832;BME280;3961;42.058;25.586;2022-11-10T05:39:24;62982.19;;;6.83;100.00
7832;BME280;3961;42.058;25.586;2022-11-10T05:41:49;62988.75;;;6.91;100.00
7832;BME280;3961;42.058;25.586;2022-11-10T05:44:15;63004.53;;;7.07;100.00
7832;BME280;3961;42.058;25.586;2022-11-10T05:46:41;63003.72;;;7.04;100.00
7832;BME280;3961;42.058;25.586;2022-11-10T05:49:07;63015.81;;;7.15;100.00
7832;BME280;3961;42.058;25.586;2022-11-10T05:51:33;63023.50;;;7.24;100.00
7832;BME280;3961;42.058;25.586;2022-11-10T05:53:58;63034.19;;;7.31;100.00
7832;BME280;3961;42.058;25.586;2022-11-10T05:56:24;63030.75;;;7.28;100.00
7832;BME280;3961;42.058;25.586;2022-11-10T05:58:49;63050.06;;;7.43;100.00
7832;BME280;3961;42.058;25.586;2022-11-10T06:01:15;63048.25;;;7.46;100.00
7832;BME280;3961;42.058;25.586;2022-11-10T06:03:40;63053.19;;;7.48;100.00
7832;BME280;3961;42.058;25.586;2022-11-10T06:06:06;63017.50;;;7.16;100.00
7832;BME280;3961;42.058;25.586;2022-11-10T06:08:31;63081.63;;;7.75;100.00
7832;BME280;3961;42.058;25.586;2022-11-10T06:10:57;63097.84;;;7.85;100.00
7832;BME280;3961;42.058;25.586;2022-11-10T06:13:22;63093.22;;;7.81;100.00
7832;BME280;3961;42.058;25.586;2022-11-10T06:15:48;63067.91;;;7.58;100.00
7832;BME280;3961;42.058;25.586;2022-11-10T06:18:13;63090.59;;;7.81;100.00
7832;BME280;3961;42.058;25.586;2022-11-10T06:20:39;63088.63;;;7.77;100.00
7832;BME280;3961;42.058;25.586;2022-11-10T06:23:09;63105.09;;;7.89;100.00
7832;BME280;3961;42.058;25.586;2022-11-10T06:25:36;63113.06;;;8.00;100.00
7832;BME280;3961;42.058;25.586;2022-11-10T06:28:03;63123.41;;;8.09;100.00
7832;BME280;3961;42.058;25.586;2022-11-10T06:30:30;63115.34;;;8.02;100.00
7832;BME280;3961;42.058;25.586;2022-11-10T06:32:56;63126.06;;;8.09;100.00
7832;BME280;3961;42.058;25.586;2022-11-10T06:35:23;63122.84;;;8.09;100.00
7832;BME280;3961;42.058;25.586;2022-11-10T06:38:05;63119.06;;;8.08;100.00
7832;BME280;3961;42.058;25.586;2022-11-10T06:40:31;63107.28;;;7.95;100.00
7832;BME280;3961;42.058;25.586;2022-11-10T06:42:57;63133.53;;;8.16;100.00
7832;BME280;3961;42.058;25.586;2022-11-10T06:45:23;63132.03;;;8.17;100.00
7832;BME280;3961;42.058;25.586;2022-11-10T06:48:04;63131.72;;;8.19;100.00
7832;BME280;3961;42.058;25.586;2022-11-10T06:50:30;63119.88;;;8.11;100.00
7832;BME280;3961;42.058;25.586;2022-11-10T06:52:56;63152.25;;;8.35;100.00
7832;BME280;3961;42.058;25.586;2022-11-10T06:55:23;63166.63;;;8.48;100.00
7832;BME280;3961;42.058;25.586;2022-11-10T06:57:48;63172.63;;;8.55;100.00
7832;BME280;3961;42.058;25.586;2022-11-10T07:00:15;63162.50;;;8.49;100.00
7832;BME280;3961;42.058;25.586;2022-11-10T07:02:40;63169.50;;;8.50;100.00
7832;BME280;3961;42.058;25.586;2022-11-10T07:05:06;63196.03;;;8.73;100.00
7832;BME280;3961;42.058;25.586;2022-11-10T07:07:32;63198.69;;;8.73;100.00
7832;BME280;3961;42.058;25.586;2022-11-10T07:09:57;63214.56;;;8.85;100.00
7832;BME280;3961;42.058;25.586;2022-11-10T07:12:23;63216.44;;;8.94;100.00
7832;BME280;3961;42.058;25.586;2022-11-10T07:14:48;63427.63;;;10.80;100.00
7832;BME280;3961;42.058;25.586;2022-11-10T07:17:14;63474.78;;;11.19;100.00
7832;BME280;3961;42.058;25.586;2022-11-10T07:19:40;63431.44;;;10.81;100.00
7832;BME280;3961;42.058;25.586;2022-11-10T07:22:06;63401.16;;;10.52;100.00
7832;BME280;3961;42.058;25.586;2022-11-10T07:24:32;63360.97;;;10.19;100.00
7832;BME280;3961;42.058;25.586;2022-11-10T07:26:57;63352.88;;;10.11;100.00
7832;BME280;3961;42.058;25.586;2022-11-10T07:29:24;63309.84;;;9.76;100.00
7832;BME280;3961;42.058;25.586;2022-11-10T07:31:51;63287.94;;;9.57;100.00
7832;BME280;3961;42.058;25.586;2022-11-10T07:34:16;63274.88;;;9.48;100.00
7832;BME280;3961;42.058;25.586;2022-11-10T07:36:42;63280.19;;;9.48;100.00
7832;BME280;3961;42.058;25.586;2022-11-10T07:39:07;63272.72;;;9.41;100.00
7832;BME280;3961;42.058;25.586;2022-11-10T07:41:33;63280.53;;;9.46;100.00
7832;BME280;3961;42.058;25.586;2022-11-10T07:43:58;63258.28;;;9.28;100.00
7832;BME280;3961;42.058;25.586;2022-11-10T07:46:24;63274.78;;;9.40;100.00
7832;BME280;3961;42.058;25.586;2022-11-10T07:48:49;63262.31;;;9.32;100.00
7832;BME280;3961;42.058;25.586;2022-11-10T07:51:15;63276.16;;;9.44;100.00
7832;BME280;3961;42.058;25.586;2022-11-10T07:53:41;63285.97;;;9.53;100.00
7832;BME280;3961;42.058;25.586;2022-11-10T07:56:07;63263.81;;;9.31;100.00
7832;BME280;3961;42.058;25.586;2022-11-10T07:58:33;63278.22;;;9.43;100.00
7832;BME280;3961;42.058;25.586;2022-11-10T08:00:59;63270.41;;;9.39;100.00
7832;BME280;3961;42.058;25.586;2022-11-10T08:03:25;63300.50;;;9.61;100.00
7832;BME280;3961;42.058;25.586;2022-11-10T08:05:51;63311.91;;;9.75;100.00
7832;BME280;3961;42.058;25.586;2022-11-10T08:08:17;63293.69;;;9.62;100.00
7832;BME280;3961;42.058;25.586;2022-11-10T08:10:43;63313.06;;;9.76;100.00
7832;BME280;3961;42.058;25.586;2022-11-10T08:13:10;63526.22;;;11.64;100.00
7832;BME280;3961;42.058;25.586;2022-11-10T08:15:37;63681.88;;;13.00;100.00
7832;BME280;3961;42.058;25.586;2022-11-10T08:18:06;63702.19;;;13.18;100.00
7832;BME280;3961;42.058;25.586;2022-11-10T08:20:32;63654.66;;;12.76;100.00
7832;BME280;3961;42.058;25.586;2022-11-10T08:22:59;63746.78;;;13.57;100.00
7832;BME280;3961;42.058;25.586;2022-11-10T08:25:27;63707.41;;;13.23;100.00
7832;BME280;3961;42.058;25.586;2022-11-10T08:28:00;63724.75;;;13.38;100.00
7832;BME280;3961;42.058;25.586;2022-11-10T08:30:27;63733.13;;;13.48;100.00
7832;BME280;3961;42.058;25.586;2022-11-10T08:32:59;63730.78;;;13.45;100.00
7832;BME280;3961;42.058;25.586;2022-11-10T08:35:28;63716.19;;;13.26;100.00
7832;BME280;3961;42.058;25.586;2022-11-10T08:37:55;63758.13;;;13.65;100.00
7832;BME280;3961;42.058;25.586;2022-11-10T08:40:22;63763.59;;;13.72;100.00
7832;BME280;3961;42.058;25.586;2022-11-10T08:43:00;63785.38;;;13.89;100.00
7832;BME280;3961;42.058;25.586;2022-11-10T08:45:27;63750.28;;;13.60;100.00
7832;BME280;3961;42.058;25.586;2022-11-10T08:48:00;63681.78;;;13.05;100.00
7832;BME280;3961;42.058;25.586;2022-11-10T08:50:27;63645.06;;;12.70;100.00
7832;BME280;3961;42.058;25.586;2022-11-10T08:52:53;63624.00;;;12.50;100.00
7832;BME280;3961;42.058;25.586;2022-11-10T08:55:18;63612.19;;;12.37;100.00
7832;BME280;3961;42.058;25.586;2022-11-10T08:57:45;63528.78;;;11.68;100.00
7832;BME280;3961;42.058;25.586;2022-11-10T09:00:12;63560.13;;;11.91;100.00
7832;BME280;3961;42.058;25.586;2022-11-10T09:02:37;63557.81;;;11.89;100.00
7832;BME280;3961;42.058;25.586;2022-11-10T09:05:03;63581.53;;;12.10;100.00
7832;BME280;3961;42.058;25.586;2022-11-10T09:07:30;63582.56;;;12.16;100.00
7832;BME280;3961;42.058;25.586;2022-11-10T09:09:55;63564.41;;;11.97;100.00
7832;BME280;3961;42.058;25.586;2022-11-10T09:12:21;63560.38;;;11.94;100.00
7832;BME280;3961;42.058;25.586;2022-11-10T09:14:46;63577.13;;;12.08;100.00
7832;BME280;3961;42.058;25.586;2022-11-10T09:17:12;63625.50;;;12.49;100.00
7832;BME280;3961;42.058;25.586;2022-11-10T09:19:37;63644.25;;;12.67;100.00
7832;BME280;3961;42.058;25.586;2022-11-10T09:22:03;63653.84;;;12.73;100.00
7832;BME280;3961;42.058;25.586;2022-11-10T09:24:29;63663.38;;;12.84;100.00
7832;BME280;3961;42.058;25.586;2022-11-10T09:26:54;63694.84;;;13.14;100.00
7832;BME280;3961;42.058;25.586;2022-11-10T09:29:20;63710.88;;;13.26;100.00
7832;BME280;3961;42.058;25.586;2022-11-10T09:31:47;63703.09;;;13.17;100.00
7832;BME280;3961;42.058;25.586;2022-11-10T09:34:13;63717.03;;;13.29;100.00
7832;BME280;3961;42.058;25.586;2022-11-10T09:36:38;63718.38;;;13.32;100.00
7832;BME280;3961;42.058;25.586;2022-11-10T09:39:06;63748.88;;;13.57;100.00
7832;BME280;3961;42.058;25.586;2022-11-10T09:41:32;63756.28;;;13.68;100.00
7832;BME280;3961;42.058;25.586;2022-11-10T09:44:03;63781.78;;;13.90;100.00
7832;BME280;3961;42.058;25.586;2022-11-10T09:46:51;63820.41;;;14.22;100.00
7832;BME280;3961;42.058;25.586;2022-11-10T09:49:26;63816.34;;;14.18;100.00
7832;BME280;3961;42.058;25.586;2022-11-10T09:51:56;63800.69;;;14.04;100.00
7832;BME280;3961;42.058;25.586;2022-11-10T09:56:50;63813.69;;;14.18;100.00
7832;BME280;3961;42.058;25.586;2022-11-10T09:59:31;63835.25;;;14.32;100.00
7832;BME280;3961;42.058;25.586;2022-11-10T10:07:15;63836.41;;;14.33;100.00
7832;BME280;3961;42.058;25.586;2022-11-10T10:10:02;63843.94;;;14.40;100.00
7832;BME280;3961;42.058;25.586;2022-11-10T10:15:26;63867.75;;;14.61;100.00
7832;BME280;3961;42.058;25.586;2022-11-10T10:20:45;63756.84;;;13.68;100.00
7832;BME280;3961;42.058;25.586;2022-11-10T10:23:35;63712.28;;;13.29;100.00
7832;BME280;3961;42.058;25.586;2022-11-10T10:26:02;63720.72;;;13.34;100.00
7832;BME280;3961;42.058;25.586;2022-11-10T10:28:34;63693.22;;;13.08;100.00
7832;BME280;3961;42.058;25.586;2022-11-10T10:31:22;63703.56;;;13.22;100.00
7832;BME280;3961;42.058;25.586;2022-11-10T10:33:52;63707.97;;;13.23;100.00
7832;BME280;3961;42.058;25.586;2022-11-10T10:36:22;63695.78;;;13.12;100.00
7832;BME280;3961;42.058;25.586;2022-11-10T10:39:04;63742.97;;;13.56;100.00
7832;BME280;3961;42.058;25.586;2022-11-10T10:41:33;63792.34;;;13.95;100.00
7832;BME280;3961;42.058;25.586;2022-11-10T10:44:04;63793.72;;;13.98;100.00
7832;BME280;3961;42.058;25.586;2022-11-10T10:46:44;63824.47;;;14.25;100.00
7832;BME280;3961;42.058;25.586;2022-11-10T10:49:30;63825.97;;;14.24;100.00
7832;BME280;3961;42.058;25.586;2022-11-10T10:54:28;63849.19;;;14.44;100.00
7832;BME280;3961;42.058;25.586;2022-11-10T10:57:23;63889.44;;;14.82;100.00
7832;BME280;3961;42.058;25.586;2022-11-10T10:59:49;63842.19;;;14.38;100.00
7832;BME280;3961;42.058;25.586;2022-11-10T11:02:27;63840.94;;;14.42;100.00
7832;BME280;3961;42.058;25.586;2022-11-10T11:05:15;63861.72;;;14.53;100.00
7832;BME280;3961;42.058;25.586;2022-11-10T11:07:54;63848.84;;;14.47;100.00
7832;BME280;3961;42.058;25.586;2022-11-10T11:10:29;63855.81;;;14.53;100.00
7832;BME280;3961;42.058;25.586;2022-11-10T11:13:12;63924.03;;;15.10;100.00
7832;BME280;3961;42.058;25.586;2022-11-10T11:15:37;63929.03;;;15.12;100.00
7832;BME280;3961;42.058;25.586;2022-11-10T11:18:12;63854.75;;;14.47;100.00
7832;BME280;3961;42.058;25.586;2022-11-10T11:25:50;63907.44;;;14.98;100.00
7832;BME280;3961;42.058;25.586;2022-11-10T11:28:28;63845.13;;;14.41;100.00
7832;BME280;3961;42.058;25.586;2022-11-10T11:37:02;64010.81;;;15.88;100.00
7832;BME280;3961;42.058;25.586;2022-11-10T11:50:22;64120.69;;;16.84;99.14
7832;BME280;3961;42.058;25.586;2022-11-10T11:53:47;64131.34;;;16.96;98.32
7832;BME280;3961;42.058;25.586;2022-11-10T11:56:24;64133.38;;;16.88;98.18
7832;BME280;3961;42.058;25.586;2022-11-10T11:59:02;64178.97;;;17.30;96.08
7832;BME280;3961;42.058;25.586;2022-11-10T12:04:41;64132.66;;;16.92;97.15
7832;BME280;3961;42.058;25.586;2022-11-10T12:07:22;64178.59;;;17.32;95.59
7832;BME280;3961;42.058;25.586;2022-11-10T12:10:26;64140.78;;;16.99;95.28
7832;BME280;3961;42.058;25.586;2022-11-10T12:13:11;64158.47;;;17.17;95.17
7832;BME280;3961;42.058;25.586;2022-11-10T12:16:09;64032.28;;;16.07;98.75
7832;BME280;3961;42.058;25.586;2022-11-10T12:18:40;64095.06;;;16.62;99.16
7832;BME280;3961;42.058;25.586;2022-11-10T12:21:23;64136.72;;;16.96;97.48
7832;BME280;3961;42.058;25.586;2022-11-10T12:29:19;64176.84;;;17.31;95.06
7832;BME280;3961;42.058;25.586;2022-11-10T12:31:46;64159.50;;;17.23;94.40
7832;BME280;3961;42.058;25.586;2022-11-10T12:34:17;64134.97;;;16.94;95.10
7832;BME280;3961;42.058;25.586;2022-11-10T12:36:44;64143.00;;;17.06;95.24
7832;BME280;3961;42.058;25.586;2022-11-10T12:39:20;64166.59;;;17.24;94.86
7832;BME280;3961;42.058;25.586;2022-11-10T12:41:51;64138.47;;;16.97;95.22
7832;BME280;3961;42.058;25.586;2022-11-10T12:44:36;64154.75;;;17.11;95.29
7832;BME280;3961;42.058;25.586;2022-11-10T12:47:06;64138.69;;;17.00;95.35
7832;BME280;3961;42.058;25.586;2022-11-10T12:49:40;64163.72;;;17.22;94.32
7832;BME280;3961;42.058;25.586;2022-11-10T12:52:10;64166.03;;;17.24;93.77
7832;BME280;3961;42.058;25.586;2022-11-10T12:54:39;64169.28;;;17.24;93.34
7832;BME280;3961;42.058;25.586;2022-11-10T12:57:09;64155.34;;;17.12;93.15
7832;BME280;3961;42.058;25.586;2022-11-10T12:59:38;64140.09;;;17.03;93.72
7832;BME280;3961;42.058;25.586;2022-11-10T13:04:42;64116.97;;;16.78;95.15
7832;BME280;3961;42.058;25.586;2022-11-10T13:07:09;64103.94;;;16.65;95.19
7832;BME280;3961;42.058;25.586;2022-11-10T13:09:38;64089.25;;;16.57;95.70
7832;BME280;3961;42.058;25.586;2022-11-10T13:12:16;64119.28;;;16.81;95.34
7832;BME280;3961;42.058;25.586;2022-11-10T13:14:43;64117.53;;;16.79;94.85
7832;BME280;3961;42.058;25.586;2022-11-10T13:19:58;64090.97;;;16.58;95.28
7832;BME280;3961;42.058;25.586;2022-11-10T13:22:37;64065.78;;;16.34;96.48
7832;BME280;3961;42.058;25.586;2022-11-10T13:28:07;64116.97;;;16.78;95.04
7832;BME280;3961;42.058;25.586;2022-11-10T13:30:45;64124.16;;;16.87;94.35
7832;BME280;3961;42.058;25.586;2022-11-10T13:35:56;64090.97;;;16.58;95.79
7832;BME280;3961;42.058;25.586;2022-11-10T13:43:48;64067.28;;;16.33;96.76
7832;BME280;3961;42.058;25.586;2022-11-10T13:46:15;64029.16;;;16.02;97.63
7832;BME280;3961;42.058;25.586;2022-11-10T13:51:42;64040.44;;;16.14;97.79
7832;BME280;3961;42.058;25.586;2022-11-10T13:59:53;64031.47;;;16.04;98.33
7832;BME280;3961;42.058;25.586;2022-11-10T14:04:59;64029.97;;;16.05;98.50
7832;BME280;3961;42.058;25.586;2022-11-10T14:07:29;64023.56;;;15.99;99.20
7832;BME280;3961;42.058;25.586;2022-11-10T14:10:03;64009.88;;;15.90;99.30
7832;BME280;3961;42.058;25.586;2022-11-10T14:12:45;63991.88;;;15.74;99.83
7832;BME280;3961;42.058;25.586;2022-11-10T14:15:16;64005.94;;;15.82;99.75
7832;BME280;3961;42.058;25.586;2022-11-10T14:17:47;64010.00;;;15.85;99.66
7832;BME280;3961;42.058;25.586;2022-11-10T14:20:40;64014.66;;;15.89;99.59
7832;BME280;3961;42.058;25.586;2022-11-10T14:26:05;63997.78;;;15.74;100.00
7832;BME280;3961;42.058;25.586;2022-11-10T14:28:36;63990.25;;;15.68;100.00
7832;BME280;3961;42.058;25.586;2022-11-10T14:31:02;63981.16;;;15.62;100.00
7832;BME280;3961;42.058;25.586;2022-11-10T14:33:28;63979.81;;;15.59;100.00
7832;BME280;3961;42.058;25.586;2022-11-10T14:35:57;63968.97;;;15.52;100.00
7832;BME280;3961;42.058;25.586;2022-11-10T14:38:29;63941.66;;;15.28;100.00
7832;BME280;3961;42.058;25.586;2022-11-10T14:41:00;63948.19;;;15.29;100.00